»·PEaware :: DCM241 KYKM-KOTH

DCM241 :: KYKM-KOTH

FLIGHT INFORMATION

Flight Status: Arrived
Operator: Unknown
More flights by this operator :: More flights under this callsign
Pilot: Drew L. (13237)
Aircraft: AIRBUS A320
(A320)
More flights by this aircraft type
Origin: KYKM Yakima Air Term/Mcallister
United States
Destination: KOTH North Bend Mun
United States
More flights between these airports :: More routes between these airports
Route: +OTH
File this flight plan on PilotEdge
Remarks:
Altitude:
(Current/Filed)
27,000ft
Speed:
(Current/Filed)
455kts
Departed: 01-Nov-17 05:09 PM
Arrived: 01-Nov-17 06:08 PM
Distance/Time
Traveled:
246nm/0:59
Distance/Time
To Go:
Arrived

Flight Plot

Page will automatically refresh every two minutes.

Flight plan parsing failed; only flown route is shown


Map Options




Map Legend


Flown Route
Filed Route
Departure Airport
Arrival Airport
Navaid (VOR, NDB)
Fix

Horizontal Profiles

Position Reports

Time Latitude Longitude Heading Altitude Ground
Speed
01-Nov-17 16:58 46.569989 -120.541229 195 1104ft 0kts
01-Nov-17 16:59 46.569988 -120.541229 195 1104ft 0kts
01-Nov-17 17:00 46.569988 -120.541229 195 1104ft 0kts
01-Nov-17 17:01 46.569988 -120.541229 195 1104ft 0kts
01-Nov-17 17:02 46.569988 -120.541229 195 1104ft 0kts
01-Nov-17 17:03 46.569988 -120.541229 195 1104ft 0kts
01-Nov-17 17:04 46.569988 -120.541229 195 1104ft 0kts
01-Nov-17 17:05 46.569988 -120.541229 195 1104ft 0kts
01-Nov-17 17:06 46.568593 -120.539007 109 1104ft 16kts
01-Nov-17 17:07 46.566632 -120.531611 136 1104ft 0kts
01-Nov-17 17:08 46.566632 -120.531611 136 1104ft 0kts
01-Nov-17 17:09 46.566632 -120.531611 136 1104ft 0kts
01-Nov-17 17:10 46.566632 -120.531611 136 1104ft 0kts
01-Nov-17 17:11 46.566632 -120.531611 136 1104ft 0kts
01-Nov-17 17:12 46.566632 -120.531611 136 1104ft 0kts
01-Nov-17 17:13 46.566632 -120.531611 136 1104ft 0kts
01-Nov-17 17:14 46.565966 -120.533230 288 1104ft 43kts
01-Nov-17 17:15 46.579206 -120.595832 266 3374ft 211kts
01-Nov-17 17:16 46.552047 -120.662181 184 7771ft 228kts
01-Nov-17 17:17 46.482361 -120.631232 176 9752ft 296kts
01-Nov-17 17:18 46.415866 -120.684792 230 9805ft 281kts
01-Nov-17 17:19 46.358386 -120.763626 224 10202ft 304kts
01-Nov-17 17:20 46.286256 -120.853016 224 11772ft 373kts
01-Nov-17 17:21 46.206029 -120.951666 225 14391ft 386kts
01-Nov-17 17:22 46.123119 -121.053414 226 16724ft 397kts
01-Nov-17 17:23 46.038106 -121.157382 227 18780ft 408kts
01-Nov-17 17:24 45.950779 -121.263733 227 20675ft 416kts
01-Nov-17 17:25 45.867119 -121.365211 228 22258ft 425kts
01-Nov-17 17:26 45.781105 -121.469080 228 22897ft 426kts
01-Nov-17 17:27 45.690366 -121.578207 228 22900ft 427kts
01-Nov-17 17:28 45.600684 -121.685564 227 22900ft 428kts
01-Nov-17 17:29 45.509361 -121.794405 227 22902ft 428kts
01-Nov-17 17:30 45.418292 -121.902526 227 22986ft 428kts
01-Nov-17 17:31 45.324743 -122.013281 226 22981ft 453kts
01-Nov-17 17:32 45.228226 -122.126682 226 22983ft 450kts
01-Nov-17 17:33 45.131953 -122.239403 226 22984ft 450kts
01-Nov-17 17:34 45.035706 -122.351617 226 22983ft 449kts
01-Nov-17 17:35 44.939454 -122.463330 227 23013ft 448kts
01-Nov-17 17:36 44.848893 -122.567990 227 23010ft 448kts
01-Nov-17 17:37 44.755221 -122.675769 226 22502ft 441kts
01-Nov-17 17:38 44.664796 -122.779146 226 20946ft 406kts
01-Nov-17 17:39 44.578640 -122.877616 226 19582ft 397kts
01-Nov-17 17:40 44.493659 -122.974273 226 18752ft 391kts
01-Nov-17 17:41 44.409917 -123.069118 226 17893ft 387kts
01-Nov-17 17:42 44.326940 -123.162723 226 16998ft 381kts
01-Nov-17 17:43 44.243161 -123.251834 209 15664ft 387kts
01-Nov-17 17:44 44.134964 -123.261983 185 14073ft 391kts
01-Nov-17 17:45 44.027669 -123.264490 186 12487ft 382kts
01-Nov-17 17:46 43.922952 -123.267832 186 11010ft 371kts
01-Nov-17 17:47 43.826059 -123.271311 186 10976ft 371kts
01-Nov-17 17:48 43.723295 -123.274623 186 10975ft 371kts
01-Nov-17 17:49 43.620392 -123.277597 186 10975ft 370kts
01-Nov-17 17:50 43.517704 -123.280228 186 10975ft 370kts
01-Nov-17 17:51 43.417337 -123.282317 186 10416ft 343kts
01-Nov-17 17:52 43.325439 -123.284177 186 9067ft 320kts
01-Nov-17 17:53 43.249753 -123.320094 245 7770ft 290kts
01-Nov-17 17:54 43.273570 -123.411420 316 6516ft 267kts
01-Nov-17 17:55 43.304751 -123.498926 284 5435ft 257kts
01-Nov-17 17:56 43.319897 -123.590042 285 4967ft 224kts
01-Nov-17 17:57 43.332806 -123.667541 284 4948ft 204kts
01-Nov-17 17:58 43.334899 -123.745228 265 4950ft 207kts
01-Nov-17 17:59 43.328920 -123.823696 265 5011ft 203kts
01-Nov-17 18:00 43.324388 -123.899095 266 4692ft 196kts
01-Nov-17 18:01 43.320562 -123.973945 266 4236ft 195kts
01-Nov-17 18:02 43.316720 -124.048174 266 3759ft 194kts
01-Nov-17 18:03 43.331629 -124.115921 314 3080ft 194kts
01-Nov-17 18:04 43.368728 -124.169349 310 3004ft 193kts
01-Nov-17 18:05 43.404715 -124.224089 311 3003ft 193kts
01-Nov-17 18:06 43.440844 -124.278862 311 3003ft 193kts
01-Nov-17 18:07 43.483030 -124.318506 4 2586ft 197kts
01-Nov-17 18:08 43.526041 -124.280925 68 2025ft 197kts
01-Nov-17 18:09 43.532116 -124.220370 138 2021ft 160kts
01-Nov-17 18:10 43.492277 -124.201426 177 1945ft 153kts
01-Nov-17 18:11 43.450797 -124.199250 193 940ft 132kts
01-Nov-17 18:12 43.427299 -124.229583 242 287ft 120kts
01-Nov-17 18:13 43.416593 -124.256064 236 26ft 8kts
01-Nov-17 18:14 43.416974 -124.252052 61 26ft 24kts
01-Nov-17 18:15 43.418508 -124.246612 150 26ft 10kts
01-Nov-17 18:16 43.417665 -124.246738 330 26ft 6kts
01-Nov-17 18:17 43.417721 -124.246783 329 26ft 0kts

Navigation Log

Ident Type
Flight plan parsing failed, navigation log unavailable